Jersey City — WDB4787 — position and weather

sailwx.info

Track history (hours):
 
Tides and Currents Weather Stations Pressure Air Temp Water Temp Dewpoint Dewpoint Depression Visibility Wind Speed Wind Dir Waves Ship Positions

Jersey City

Owner: PORT IMPERIAL FERRY CORP, WEEHAWKEN, NJ. More information available from US FCC via Universal Licensing System and Coast Guard Vessel Documentation Center.

Last reported at 2017-Dec-15 04:00 UTC. Time now 2017-Dec-15 04:21 UTC.
Position N 40°45' W 074°01'.

Length 27 m; draft 2 m.

Type: Passenger vessel. MMSI: 366902340.

Date/timePositionNaut miles runAvg speedWind from/ knotsBaromVisibWave heightAir tempDewpointWater temp
2017-Dec-15 04:00N 40°45' W 074°01'1 0.6
2017-Dec-15 02:30N 40°46' W 074°00'1 0.6
2017-Dec-15 01:00N 40°46' W 074°01'0 0.1
2017-Dec-15 00:30N 40°45' W 074°01'3 0.3
2017-Dec-14 15:01N 40°42' W 074°01'3 6.0
2017-Dec-14 14:30N 40°45' W 074°01'1 2.5
2017-Dec-14 13:59N 40°47' W 074°01'3 7.2
2017-Dec-14 13:31N 40°43' W 074°01'2 3.1
2017-Dec-14 13:01N 40°42' W 074°01'4 7.7
2017-Dec-14 12:30N 40°46' W 074°00'1 1.9
2017-Dec-14 12:00N 40°47' W 074°01'4 7.5
2017-Dec-14 11:31N 40°43' W 074°01'4 7.1
2017-Dec-14 11:00N 40°47' W 074°01'0 0.0
2017-Dec-14 10:30N 40°47' W 074°01'0 0.0
2017-Dec-14 10:00N 40°47' W 074°01'0 0.0
2017-Dec-14 00:56N 40°47' W 074°01'410.3
2017-Dec-14 00:30N 40°42' W 074°00'3 5.9
2017-Dec-14 00:00N 40°45' W 074°01'1 1.1
2017-Dec-13 23:31N 40°45' W 074°01'2 4.8
2017-Dec-13 23:00N 40°42' W 074°00'3 6.7
2017-Dec-13 22:31N 40°46' W 074°01'3 6.4
2017-Dec-13 22:01N 40°42' W 074°01'1 1.2
2017-Dec-13 21:31N 40°43' W 074°01'4 7.1
2017-Dec-13 20:59N 40°47' W 074°01'4 9.2
2017-Dec-13 20:31N 40°42' W 074°01'4 8.0
2017-Dec-13 20:00N 40°46' W 074°01'0 0.5
2017-Dec-13 19:30N 40°46' W 074°01'1 1.8
2017-Dec-13 19:01N 40°45' W 074°01'1 1.6
2017-Dec-13 18:30N 40°46' W 074°00'1 1.6
2017-Dec-13 18:00N 40°45' W 074°01'1 1.5
2017-Dec-13 17:30N 40°46' W 074°00'1 1.5
2017-Dec-13 17:00N 40°45' W 074°01'1 1.5
2017-Dec-13 16:30N 40°46' W 074°00'1 1.5
2017-Dec-13 16:01N 40°45' W 074°01'1 1.4
2017-Dec-13 15:30N 40°46' W 074°00'0 0.1
2017-Dec-13 15:00N 40°46' W 074°00'1 1.9
2017-Dec-13 14:30N 40°47' W 074°01'0 0.0
2017-Dec-13 13:59N 40°47' W 074°01'4 8.1
2017-Dec-13 13:31N 40°43' W 074°01'1 2.2
2017-Dec-13 13:00N 40°42' W 074°01'4 8.2
2017-Dec-13 12:31N 40°46' W 074°00'1 1.3
2017-Dec-13 11:59N 40°47' W 074°01'4 8.9
2017-Dec-13 11:31N 40°42' W 074°01'4 8.4
2017-Dec-13 11:00N 40°47' W 074°01'0 0.0
2017-Dec-13 10:30N 40°47' W 074°01'0 0.0
2017-Dec-13 00:57N 40°47' W 074°01'4 9.7
2017-Dec-13 00:30N 40°42' W 074°00'3 6.0
2017-Dec-13 00:00N 40°45' W 074°01'0 0.9
2017-Dec-12 23:30N 40°45' W 074°01'3 5.1
2017-Dec-12 23:00N 40°42' W 074°00'4 7.1
2017-Dec-12 22:30N 40°46' W 074°01'4 7.6
2017-Dec-12 22:00N 40°42' W 074°01'1 1.9
2017-Dec-12 21:31N 40°43' W 074°01'4 7.2
2017-Dec-12 21:00N 40°47' W 074°01'4 9.0
2017-Dec-12 20:31N 40°42' W 074°00'4 8.1
2017-Dec-12 20:00N 40°46' W 074°01'0 0.0
2017-Dec-12 15:19N 40°46' W 074°01'412.5
2017-Dec-12 15:01N 40°42' W 074°01'3 6.3
2017-Dec-12 14:30N 40°46' W 074°01'1 2.0
2017-Dec-12 14:00N 40°47' W 074°01'4 7.4
2017-Dec-12 13:31N 40°43' W 074°01'1 2.6
2017-Dec-12 13:01N 40°42' W 074°01'4 7.4
2017-Dec-12 12:31N 40°46' W 074°00'1 1.9
2017-Dec-12 12:00N 40°47' W 074°01'4 7.5
2017-Dec-12 11:31N 40°43' W 074°02'4 7.2
2017-Dec-12 11:00N 40°47' W 074°01'0 0.0
2017-Dec-12 01:22N 40°47' W 074°01'412.4
2017-Dec-12 01:00N 40°42' W 074°00'4 8.8
2017-Dec-12 00:30N 40°47' W 074°01'5 9.4
2017-Dec-12 00:01N 40°42' W 074°01'1 2.0
2017-Dec-11 23:31N 40°43' W 074°01'3 5.7
2017-Dec-11 23:00N 40°46' W 074°01'4 7.0
2017-Dec-11 22:30N 40°42' W 074°00'3 5.7
2017-Dec-11 22:01N 40°45' W 074°01'0 0.5
2017-Dec-11 21:30N 40°45' W 074°01'3 5.6
2017-Dec-11 21:00N 40°42' W 074°00'4 0.8
2017-Dec-11 15:42N 40°46' W 074°01'318.1
2017-Dec-11 15:31N 40°43' W 074°01'4 7.1
2017-Dec-11 15:00N 40°47' W 074°01'4 7.1
2017-Dec-11 14:30N 40°43' W 074°01'1 2.5
2017-Dec-11 14:00N 40°42' W 074°00'3 5.1
2017-Dec-11 13:31N 40°45' W 074°01'2 3.8
2017-Dec-11 13:00N 40°47' W 074°01'4 9.2
2017-Dec-11 12:31N 40°42' W 074°01'0 0.1
2017-Dec-11 12:00N 40°42' W 074°01'4 7.5
2017-Dec-11 11:30N 40°46' W 074°01'1 1.4
2017-Dec-11 11:00N 40°47' W 074°01'5 0.3
2017-Dec-10 20:24N 40°42' W 074°01'0 0.7
2017-Dec-10 20:01N 40°42' W 074°01'5 0.1
2017-Dec-09 01:22N 40°47' W 074°01'412.1
2017-Dec-09 01:00N 40°42' W 074°00'4 8.6
2017-Dec-09 00:30N 40°47' W 074°01'5 9.6
2017-Dec-09 00:01N 40°42' W 074°01'1 2.1
2017-Dec-08 23:31N 40°43' W 074°01'3 6.8
2017-Dec-08 23:00N 40°46' W 074°00'4 8.1
2017-Dec-08 22:30N 40°42' W 074°00'3 6.0
2017-Dec-08 22:00N 40°45' W 074°01'0 0.4
2017-Dec-08 21:31N 40°45' W 074°01'3 5.7
2017-Dec-08 21:00N 40°42' W 074°00'4 0.8
2017-Dec-08 15:40N 40°46' W 074°01'317.5
2017-Dec-08 15:30N 40°43' W 074°01'3 6.3
2017-Dec-08 15:00N 40°47' W 074°01'4 8.6
2017-Dec-08 14:31N 40°42' W 074°01'1 1.1
2017-Dec-08 14:01N 40°42' W 074°01'4 8.1
2017-Dec-08 13:30N 40°46' W 074°01'1 1.5
2017-Dec-08 13:00N 40°47' W 074°01'5 9.4
2017-Dec-08 12:31N 40°42' W 074°01'0 0.4
2017-Dec-08 12:01N 40°42' W 074°01'4 7.1
2017-Dec-08 11:30N 40°46' W 074°01'1 2.0
2017-Dec-08 11:00N 40°47' W 074°01'0 0.0
2017-Dec-08 10:30N 40°47' W 074°01'0 0.0
2017-Dec-08 01:26N 40°47' W 074°01'410.2
2017-Dec-08 01:00N 40°42' W 074°00'3 6.8
2017-Dec-08 00:30N 40°46' W 074°01'2 4.0
2017-Dec-08 00:01N 40°44' W 074°01'1 1.4
2017-Dec-07 23:30N 40°43' W 074°01'4 7.3
2017-Dec-07 23:00N 40°46' W 074°00'4 8.6
2017-Dec-07 22:30N 40°42' W 074°00'3 5.8
2017-Dec-07 22:00N 40°45' W 074°01'0 0.7
2017-Dec-07 21:31N 40°45' W 074°01'3 6.1
2017-Dec-07 21:00N 40°42' W 074°00'0 0.1
2017-Dec-07 15:28N 40°42' W 074°01'510.1
2017-Dec-07 15:00N 40°47' W 074°01'4 7.8
2017-Dec-07 14:31N 40°43' W 074°01'1 1.8
2017-Dec-07 14:00N 40°42' W 074°00'3 6.1
2017-Dec-07 13:31N 40°45' W 074°01'1 2.7
2017-Dec-07 13:00N 40°47' W 074°01'4 8.4
2017-Dec-07 12:30N 40°42' W 074°01'1 1.3
2017-Dec-07 12:01N 40°42' W 074°01'3 6.7
2017-Dec-07 11:30N 40°45' W 074°01'1 2.9
2017-Dec-07 11:00N 40°47' W 074°01'0 0.0
2017-Dec-07 09:46N 40°47' W 074°01'0 0.0
2017-Dec-07 01:21N 40°47' W 074°01'412.6
2017-Dec-07 01:00N 40°42' W 074°00'4 8.8
2017-Dec-07 00:30N 40°47' W 074°01'4 8.9
2017-Dec-07 00:01N 40°42' W 074°01'1 1.5
2017-Dec-06 23:30N 40°43' W 074°01'4 7.4
2017-Dec-06 23:00N 40°47' W 074°01'4 8.8
2017-Dec-06 22:30N 40°42' W 074°00'2 4.9
2017-Dec-06 22:00N 40°45' W 074°01'0 0.3
2017-Dec-06 21:31N 40°45' W 074°01'3 5.1
2017-Dec-06 21:00N 40°42' W 074°00'  
Track history (hours):
 
Tides and Currents Weather Stations Pressure Air Temp Water Temp Dewpoint Dewpoint Depression Visibility Wind Speed Wind Dir Waves Ship Positions

Jersey City

Owner: PORT IMPERIAL FERRY CORP, WEEHAWKEN, NJ. More information available from US FCC via Universal Licensing System and Coast Guard Vessel Documentation Center.

Last reported at 2017-Dec-15 04:00 UTC. Time now 2017-Dec-15 04:21 UTC.
Position N 40°45' W 074°01'.

Length 27 m; draft 2 m.

Type: Passenger vessel. MMSI: 366902340.

Date/timePositionNaut miles runAvg speedWind from/ knotsBaromVisibWave heightAir tempDewpointWater temp
2017-Dec-15 04:00N 40°45' W 074°01'1 0.6
2017-Dec-15 02:30N 40°46' W 074°00'1 0.6
2017-Dec-15 01:00N 40°46' W 074°01'0 0.1
2017-Dec-15 00:30N 40°45' W 074°01'3 0.3
2017-Dec-14 15:01N 40°42' W 074°01'3 6.0
2017-Dec-14 14:30N 40°45' W 074°01'1 2.5
2017-Dec-14 13:59N 40°47' W 074°01'3 7.2
2017-Dec-14 13:31N 40°43' W 074°01'2 3.1
2017-Dec-14 13:01N 40°42' W 074°01'4 7.7
2017-Dec-14 12:30N 40°46' W 074°00'1 1.9
2017-Dec-14 12:00N 40°47' W 074°01'4 7.5
2017-Dec-14 11:31N 40°43' W 074°01'4 7.1
2017-Dec-14 11:00N 40°47' W 074°01'0 0.0
2017-Dec-14 10:30N 40°47' W 074°01'0 0.0
2017-Dec-14 10:00N 40°47' W 074°01'0 0.0
2017-Dec-14 00:56N 40°47' W 074°01'410.3
2017-Dec-14 00:30N 40°42' W 074°00'3 5.9
2017-Dec-14 00:00N 40°45' W 074°01'1 1.1
2017-Dec-13 23:31N 40°45' W 074°01'2 4.8
2017-Dec-13 23:00N 40°42' W 074°00'3 6.7
2017-Dec-13 22:31N 40°46' W 074°01'3 6.4
2017-Dec-13 22:01N 40°42' W 074°01'1 1.2
2017-Dec-13 21:31N 40°43' W 074°01'4 7.1
2017-Dec-13 20:59N 40°47' W 074°01'4 9.2
2017-Dec-13 20:31N 40°42' W 074°01'4 8.0
2017-Dec-13 20:00N 40°46' W 074°01'0 0.5
2017-Dec-13 19:30N 40°46' W 074°01'1 1.8
2017-Dec-13 19:01N 40°45' W 074°01'1 1.6
2017-Dec-13 18:30N 40°46' W 074°00'1 1.6
2017-Dec-13 18:00N 40°45' W 074°01'1 1.5
2017-Dec-13 17:30N 40°46' W 074°00'1 1.5
2017-Dec-13 17:00N 40°45' W 074°01'1 1.5
2017-Dec-13 16:30N 40°46' W 074°00'1 1.5
2017-Dec-13 16:01N 40°45' W 074°01'1 1.4
2017-Dec-13 15:30N 40°46' W 074°00'0 0.1
2017-Dec-13 15:00N 40°46' W 074°00'1 1.9
2017-Dec-13 14:30N 40°47' W 074°01'0 0.0
2017-Dec-13 13:59N 40°47' W 074°01'4 8.1
2017-Dec-13 13:31N 40°43' W 074°01'1 2.2
2017-Dec-13 13:00N 40°42' W 074°01'4 8.2
2017-Dec-13 12:31N 40°46' W 074°00'1 1.3
2017-Dec-13 11:59N 40°47' W 074°01'4 8.9
2017-Dec-13 11:31N 40°42' W 074°01'4 8.4
2017-Dec-13 11:00N 40°47' W 074°01'0 0.0
2017-Dec-13 10:30N 40°47' W 074°01'0 0.0
2017-Dec-13 00:57N 40°47' W 074°01'4 9.7
2017-Dec-13 00:30N 40°42' W 074°00'3 6.0
2017-Dec-13 00:00N 40°45' W 074°01'0 0.9
2017-Dec-12 23:30N 40°45' W 074°01'3 5.1
2017-Dec-12 23:00N 40°42' W 074°00'4 7.1
2017-Dec-12 22:30N 40°46' W 074°01'4 7.6
2017-Dec-12 22:00N 40°42' W 074°01'1 1.9
2017-Dec-12 21:31N 40°43' W 074°01'4 7.2
2017-Dec-12 21:00N 40°47' W 074°01'4 9.0
2017-Dec-12 20:31N 40°42' W 074°00'4 8.1
2017-Dec-12 20:00N 40°46' W 074°01'0 0.0
2017-Dec-12 15:19N 40°46' W 074°01'412.5
2017-Dec-12 15:01N 40°42' W 074°01'3 6.3
2017-Dec-12 14:30N 40°46' W 074°01'1 2.0
2017-Dec-12 14:00N 40°47' W 074°01'4 7.4
2017-Dec-12 13:31N 40°43' W 074°01'1 2.6
2017-Dec-12 13:01N 40°42' W 074°01'4 7.4
2017-Dec-12 12:31N 40°46' W 074°00'1 1.9
2017-Dec-12 12:00N 40°47' W 074°01'4 7.5
2017-Dec-12 11:31N 40°43' W 074°02'4 7.2
2017-Dec-12 11:00N 40°47' W 074°01'0 0.0
2017-Dec-12 01:22N 40°47' W 074°01'412.4
2017-Dec-12 01:00N 40°42' W 074°00'4 8.8
2017-Dec-12 00:30N 40°47' W 074°01'5 9.4
2017-Dec-12 00:01N 40°42' W 074°01'1 2.0
2017-Dec-11 23:31N 40°43' W 074°01'3 5.7
2017-Dec-11 23:00N 40°46' W 074°01'4 7.0
2017-Dec-11 22:30N 40°42' W 074°00'3 5.7
2017-Dec-11 22:01N 40°45' W 074°01'0 0.5
2017-Dec-11 21:30N 40°45' W 074°01'3 5.6
2017-Dec-11 21:00N 40°42' W 074°00'4 0.8
2017-Dec-11 15:42N 40°46' W 074°01'318.1
2017-Dec-11 15:31N 40°43' W 074°01'4 7.1
2017-Dec-11 15:00N 40°47' W 074°01'4 7.1
2017-Dec-11 14:30N 40°43' W 074°01'1 2.5
2017-Dec-11 14:00N 40°42' W 074°00'3 5.1
2017-Dec-11 13:31N 40°45' W 074°01'2 3.8
2017-Dec-11 13:00N 40°47' W 074°01'4 9.2
2017-Dec-11 12:31N 40°42' W 074°01'0 0.1
2017-Dec-11 12:00N 40°42' W 074°01'4 7.5
2017-Dec-11 11:30N 40°46' W 074°01'1 1.4
2017-Dec-11 11:00N 40°47' W 074°01'5 0.3
2017-Dec-10 20:24N 40°42' W 074°01'0 0.7
2017-Dec-10 20:01N 40°42' W 074°01'5 0.1
2017-Dec-09 01:22N 40°47' W 074°01'412.1
2017-Dec-09 01:00N 40°42' W 074°00'4 8.6
2017-Dec-09 00:30N 40°47' W 074°01'5 9.6
2017-Dec-09 00:01N 40°42' W 074°01'1 2.1
2017-Dec-08 23:31N 40°43' W 074°01'3 6.8
2017-Dec-08 23:00N 40°46' W 074°00'4 8.1
2017-Dec-08 22:30N 40°42' W 074°00'3 6.0
2017-Dec-08 22:00N 40°45' W 074°01'0 0.4
2017-Dec-08 21:31N 40°45' W 074°01'3 5.7
2017-Dec-08 21:00N 40°42' W 074°00'4 0.8
2017-Dec-08 15:40N 40°46' W 074°01'317.5
2017-Dec-08 15:30N 40°43' W 074°01'3 6.3
2017-Dec-08 15:00N 40°47' W 074°01'4 8.6
2017-Dec-08 14:31N 40°42' W 074°01'1 1.1
2017-Dec-08 14:01N 40°42' W 074°01'4 8.1
2017-Dec-08 13:30N 40°46' W 074°01'1 1.5
2017-Dec-08 13:00N 40°47' W 074°01'5 9.4
2017-Dec-08 12:31N 40°42' W 074°01'0 0.4
2017-Dec-08 12:01N 40°42' W 074°01'4 7.1
2017-Dec-08 11:30N 40°46' W 074°01'1 2.0
2017-Dec-08 11:00N 40°47' W 074°01'0 0.0
2017-Dec-08 10:30N 40°47' W 074°01'0 0.0
2017-Dec-08 01:26N 40°47' W 074°01'410.2
2017-Dec-08 01:00N 40°42' W 074°00'3 6.8
2017-Dec-08 00:30N 40°46' W 074°01'2 4.0
2017-Dec-08 00:01N 40°44' W 074°01'1 1.4
2017-Dec-07 23:30N 40°43' W 074°01'4 7.3
2017-Dec-07 23:00N 40°46' W 074°00'4 8.6
2017-Dec-07 22:30N 40°42' W 074°00'3 5.8
2017-Dec-07 22:00N 40°45' W 074°01'0 0.7
2017-Dec-07 21:31N 40°45' W 074°01'3 6.1
2017-Dec-07 21:00N 40°42' W 074°00'0 0.1
2017-Dec-07 15:28N 40°42' W 074°01'510.1
2017-Dec-07 15:00N 40°47' W 074°01'4 7.8
2017-Dec-07 14:31N 40°43' W 074°01'1 1.8
2017-Dec-07 14:00N 40°42' W 074°00'3 6.1
2017-Dec-07 13:31N 40°45' W 074°01'1 2.7
2017-Dec-07 13:00N 40°47' W 074°01'4 8.4
2017-Dec-07 12:30N 40°42' W 074°01'1 1.3
2017-Dec-07 12:01N 40°42' W 074°01'3 6.7
2017-Dec-07 11:30N 40°45' W 074°01'1 2.9
2017-Dec-07 11:00N 40°47' W 074°01'0 0.0
2017-Dec-07 09:46N 40°47' W 074°01'0 0.0
2017-Dec-07 01:21N 40°47' W 074°01'412.6
2017-Dec-07 01:00N 40°42' W 074°00'4 8.8
2017-Dec-07 00:30N 40°47' W 074°01'4 8.9
2017-Dec-07 00:01N 40°42' W 074°01'1 1.5
2017-Dec-06 23:30N 40°43' W 074°01'4 7.4
2017-Dec-06 23:00N 40°47' W 074°01'4 8.8
2017-Dec-06 22:30N 40°42' W 074°00'2 4.9
2017-Dec-06 22:00N 40°45' W 074°01'0 0.3
2017-Dec-06 21:31N 40°45' W 074°01'3 5.1
2017-Dec-06 21:00N 40°42' W 074°00'  

Dump ship's entire track history